Time;durP1;ratioP1;P1;durP2;ratioP2;P2;SDS_P1;SDS_P2;PMS_P1;PMS_P2;Temp;Humidity;BMP_temperature;BMP_pressure;BME280_temperature;BME280_humidity;BME280_pressure;Samples;Min_cycle;Max_cycle;Signal;HPM_P1;HPM_P2
2022/06/13 00:01:21;;;;;;;3.72;0.75;;;18.60;53.10;;;;;;5008324;28;20449;-75
2022/06/13 00:03:46;;;;;;;3.67;0.98;;;18.50;53.20;;;;;;4970282;28;20053;-74
2022/06/13 00:06:12;;;;;;;1.95;0.70;;;18.40;53.20;;;;;;4996612;28;20045;-74
2022/06/13 00:08:37;;;;;;;1.38;0.80;;;18.40;53.20;;;;;;5001240;28;20039;-75
2022/06/13 00:11:06;;;;;;;1.75;0.70;;;18.30;53.30;;;;;;4982129;28;20046;-74
2022/06/13 00:13:31;;;;;;;2.05;0.80;;;18.30;53.40;;;;;;5008028;28;20046;-75
2022/06/13 00:15:57;;;;;;;1.67;0.80;;;18.30;53.50;;;;;;5013041;28;20540;-75
2022/06/13 00:18:24;;;;;;;1.65;0.90;;;18.20;53.50;;;;;;4997112;28;20033;-75
2022/06/13 00:20:50;;;;;;;0.98;0.70;;;18.10;53.50;;;;;;5027786;28;20497;-74
2022/06/13 00:23:15;;;;;;;2.45;0.80;;;18.10;53.60;;;;;;5027913;28;20047;-75
2022/06/13 00:25:41;;;;;;;2.15;1.10;;;18.10;53.60;;;;;;5003422;28;20039;-74
2022/06/13 00:28:06;;;;;;;2.58;0.70;;;18.00;53.60;;;;;;5001064;28;20045;-74
2022/06/13 00:30:32;;;;;;;2.40;1.00;;;18.00;53.70;;;;;;4981016;28;20525;-75
2022/06/13 00:32:57;;;;;;;2.65;1.02;;;18.00;53.80;;;;;;5005093;28;20041;-74
2022/06/13 00:35:23;;;;;;;1.58;0.80;;;18.00;53.80;;;;;;5016492;28;20748;-75
2022/06/13 00:37:48;;;;;;;1.85;0.80;;;17.90;53.80;;;;;;5027364;28;20048;-75
2022/06/13 00:40:14;;;;;;;2.50;0.98;;;17.90;53.90;;;;;;5007933;28;20071;-75
2022/06/13 00:42:40;;;;;;;1.33;0.68;;;17.90;54.00;;;;;;4983045;28;20077;-75
2022/06/13 00:45:23;;;;;;;3.50;1.05;;;17.80;54.00;;;;;;5006601;28;20108;-75
2022/06/13 00:47:51;;;;;;;0.95;0.80;;;17.80;54.10;;;;;;4963094;28;20513;-74
2022/06/13 00:50:35;;;;;;;1.38;0.80;;;17.80;54.10;;;;;;4973611;28;20065;-74
2022/06/13 00:53:10;;;;;;;3.90;1.15;;;17.70;54.40;;;;;;5011470;28;20065;-74
2022/06/13 00:55:44;;;;;;;1.65;0.90;;;17.70;54.20;;;;;;5011741;28;20045;-75
2022/06/13 00:58:10;;;;;;;4.10;0.95;;;17.70;54.40;;;;;;5008339;28;20521;-75
2022/06/13 01:00:35;;;;;;;2.95;1.00;;;17.60;54.30;;;;;;5011769;28;20034;-75
2022/06/13 01:03:02;;;;;;;1.27;0.93;;;17.60;54.30;;;;;;4999606;28;20111;-75
2022/06/13 01:05:28;;;;;;;1.88;0.88;;;17.60;54.40;;;;;;5016506;28;20498;-73
2022/06/13 01:07:54;;;;;;;2.92;0.90;;;17.50;54.40;;;;;;5006670;28;20045;-75
2022/06/13 01:13:04;;;;;;;1.88;0.93;;;17.40;54.50;;;;;;4976241;28;20048;-74
2022/06/13 01:15:37;;;;;;;2.60;1.00;;;17.40;54.60;;;;;;4984432;28;20091;-74
2022/06/13 01:18:45;;;;;;;2.17;0.70;;;17.40;54.70;;;;;;5018618;28;20052;-74
2022/06/13 01:21:46;;;;;;;3.03;1.00;;;17.30;55.00;;;;;;4996548;28;20559;-75
2022/06/13 01:24:32;;;;;;;2.00;1.00;;;17.30;55.10;;;;;;5009510;28;20049;-74
2022/06/13 01:27:21;;;;;;;2.22;0.85;;;17.20;54.80;;;;;;4977367;28;20036;-75
2022/06/13 01:30:03;;;;;;;3.03;0.95;;;17.20;55.60;;;;;;5006437;28;20040;-74
2022/06/13 01:32:41;;;;;;;5.05;1.23;;;17.10;54.90;;;;;;5020953;28;20029;-74
2022/06/13 01:35:19;;;;;;;3.17;0.90;;;17.10;55.30;;;;;;4994222;28;20494;-73
2022/06/13 01:38:03;;;;;;;2.10;1.00;;;17.10;55.20;;;;;;5001043;28;20037;-74
2022/06/13 01:41:01;;;;;;;3.67;1.00;;;17.00;55.30;;;;;;5018892;28;20128;-75
2022/06/13 01:44:04;;;;;;;2.28;0.65;;;17.00;55.50;;;;;;4991772;28;20037;-74
2022/06/13 01:46:42;;;;;;;3.17;1.10;;;17.00;55.60;;;;;;5015551;28;20049;-74
2022/06/13 01:49:22;;;;;;;1.85;0.90;;;17.00;55.50;;;;;;4983450;28;20171;-74
2022/06/13 01:52:10;;;;;;;1.33;0.85;;;16.90;55.70;;;;;;5013595;28;20088;-73
2022/06/13 01:54:56;;;;;;;3.67;1.27;;;16.90;55.60;;;;;;5005784;28;20087;-75
2022/06/13 01:57:30;;;;;;;2.70;0.98;;;16.90;55.90;;;;;;5017027;28;20026;-73
2022/06/13 01:59:59;;;;;;;3.70;1.02;;;16.80;55.90;;;;;;5023471;28;20470;-74
2022/06/13 02:02:45;;;;;;;1.73;1.08;;;16.80;55.80;;;;;;4991125;28;20116;-74
2022/06/13 02:05:31;;;;;;;2.10;1.15;;;16.80;56.20;;;;;;4999414;28;20044;-74
2022/06/13 02:08:01;;;;;;;4.00;1.20;;;16.80;56.20;;;;;;4982270;28;20073;-74
2022/06/13 02:10:30;;;;;;;4.43;1.08;;;16.70;56.00;;;;;;4983395;28;20047;-74
2022/06/13 02:13:01;;;;;;;2.33;1.00;;;16.70;56.00;;;;;;4991393;28;20030;-73
2022/06/13 02:15:31;;;;;;;3.30;1.25;;;16.60;56.10;;;;;;5000186;28;20119;-73
2022/06/13 02:18:02;;;;;;;2.53;0.98;;;16.60;56.10;;;;;;4992275;28;20034;-74
2022/06/13 02:20:31;;;;;;;4.95;0.93;;;16.60;56.20;;;;;;4998454;28;20793;-74
2022/06/13 02:22:58;;;;;;;4.50;0.90;;;16.60;56.20;;;;;;5013815;28;21115;-74
2022/06/13 02:25:29;;;;;;;3.78;1.00;;;16.50;56.20;;;;;;4984937;28;20124;-74
2022/06/13 02:28:00;;;;;;;3.80;1.35;;;16.50;56.40;;;;;;5008460;28;20026;-74
2022/06/13 02:30:31;;;;;;;2.88;1.05;;;16.50;56.50;;;;;;5018125;28;20037;-74
2022/06/13 02:33:18;;;;;;;4.70;1.05;;;16.50;57.30;;;;;;5013137;28;20132;-74
2022/06/13 02:35:48;;;;;;;2.35;1.23;;;16.40;56.50;;;;;;5005874;28;20136;-74
2022/06/13 02:38:27;;;;;;;4.47;1.30;;;16.40;56.70;;;;;;5012473;28;20037;-76
2022/06/13 02:40:55;;;;;;;4.40;1.45;;;16.30;56.70;;;;;;5013727;28;20036;-73
2022/06/13 02:43:26;;;;;;;3.75;1.13;;;16.30;56.80;;;;;;5012159;28;20041;-75
2022/06/13 02:45:59;;;;;;;3.13;0.90;;;16.30;56.80;;;;;;5021955;28;20599;-75
2022/06/13 02:48:36;;;;;;;2.95;1.15;;;16.30;56.90;;;;;;5019152;28;20545;-74
2022/06/13 02:51:04;;;;;;;3.40;1.38;;;16.20;57.00;;;;;;5016357;28;20063;-74
2022/06/13 02:53:33;;;;;;;6.47;1.42;;;16.20;56.90;;;;;;5015263;28;20033;-73
2022/06/13 02:56:25;;;;;;;3.42;1.05;;;16.10;57.20;;;;;;5013841;28;20051;-76
2022/06/13 02:59:13;;;;;;;3.45;0.90;;;16.10;57.40;;;;;;5002012;28;20053;-74
2022/06/13 03:01:43;;;;;;;5.05;1.10;;;16.10;57.50;;;;;;5031838;28;20588;-74
2022/06/13 03:04:22;;;;;;;4.93;1.25;;;16.10;57.30;;;;;;4988537;28;20056;-74
2022/06/13 03:07:09;;;;;;;2.38;1.10;;;16.10;57.60;;;;;;5000313;28;20041;-74
2022/06/13 03:09:45;;;;;;;2.72;1.33;;;16.00;57.70;;;;;;5021385;28;20037;-73
2022/06/13 03:12:32;;;;;;;2.30;1.33;;;16.00;57.50;;;;;;5003208;28;20049;-73
2022/06/13 03:15:00;;;;;;;2.88;1.25;;;15.90;57.90;;;;;;4972441;28;20132;-74
2022/06/13 03:17:41;;;;;;;3.30;1.00;;;15.90;57.60;;;;;;5021929;28;20072;-74
2022/06/13 03:20:15;;;;;;;1.87;1.07;;;15.90;57.70;;;;;;5017301;28;20053;-73
2022/06/13 03:22:52;;;;;;;2.00;1.23;;;15.80;57.80;;;;;;5001174;28;20264;-74
2022/06/13 03:25:42;;;;;;;3.10;1.60;;;15.80;57.90;;;;;;5000947;28;20034;-74
2022/06/13 03:28:13;;;;;;;1.50;0.80;;;15.80;58.10;;;;;;5021661;28;20144;-73
2022/06/13 03:30:43;;;;;;;3.10;1.30;;;15.70;58.00;;;;;;5000456;28;20152;-74
2022/06/13 03:35:55;;;;;;;2.40;1.05;;;15.70;58.30;;;;;;5008589;28;20544;-74
2022/06/13 03:38:23;;;;;;;4.57;1.10;;;15.70;58.30;;;;;;5017356;28;20033;-75
2022/06/13 03:40:50;;;;;;;3.78;1.33;;;15.60;58.30;;;;;;5009148;28;20036;-73
2022/06/13 03:43:19;;;;;;;2.60;1.00;;;15.60;58.40;;;;;;4991711;28;20045;-74
2022/06/13 03:45:51;;;;;;;1.38;1.13;;;15.60;58.60;;;;;;4991544;28;20544;-73
2022/06/13 03:48:26;;;;;;;4.78;1.20;;;15.60;58.70;;;;;;4996775;28;20268;-73
2022/06/13 03:50:58;;;;;;;5.57;1.17;;;15.50;58.70;;;;;;4998181;28;20033;-74
2022/06/13 03:53:30;;;;;;;3.85;1.15;;;15.50;58.80;;;;;;5012762;28;20033;-74
2022/06/13 03:56:00;;;;;;;4.13;1.60;;;15.50;58.80;;;;;;5010767;28;20438;-73
2022/06/13 03:58:34;;;;;;;5.68;1.27;;;15.50;59.00;;;;;;5016100;28;20030;-73
2022/06/13 04:01:08;;;;;;;3.35;1.10;;;15.40;59.10;;;;;;5020851;28;20071;-75
2022/06/13 04:03:33;;;;;;;4.65;1.25;;;15.50;59.30;;;;;;4968282;28;20406;-75
2022/06/13 04:06:01;;;;;;;4.80;1.15;;;15.40;59.20;;;;;;5002474;28;20585;-75
2022/06/13 04:08:28;;;;;;;4.32;0.90;;;15.40;59.30;;;;;;4998185;28;20136;-74
2022/06/13 04:11:21;;;;;;;6.03;1.38;;;15.40;59.40;;;;;;5015489;28;20057;-74
2022/06/13 04:14:14;;;;;;;4.20;1.25;;;15.40;60.00;;;;;;4982947;28;20034;-74
2022/06/13 04:16:56;;;;;;;2.80;1.15;;;15.40;59.70;;;;;;5003030;28;20544;-74
2022/06/13 04:19:30;;;;;;;3.70;1.70;;;15.40;59.70;;;;;;5019666;28;20673;-74
2022/06/13 04:22:06;;;;;;;3.42;1.08;;;15.40;60.00;;;;;;5016990;28;20072;-74
2022/06/13 04:24:53;;;;;;;4.32;1.40;;;15.30;59.70;;;;;;5020447;28;20048;-74
2022/06/13 04:27:44;;;;;;;3.50;1.33;;;15.40;60.20;;;;;;5020060;28;20510;-74
2022/06/13 04:30:15;;;;;;;3.75;1.35;;;15.40;60.90;;;;;;5022506;28;20037;-74
2022/06/13 04:32:51;;;;;;;3.63;1.02;;;15.40;60.40;;;;;;4985132;28;20044;-74
2022/06/13 04:35:16;;;;;;;2.90;1.20;;;15.40;60.80;;;;;;4999151;28;20034;-75
2022/06/13 04:37:42;;;;;;;2.95;1.10;;;15.50;60.70;;;;;;5002991;28;20026;-74
2022/06/13 04:40:10;;;;;;;5.53;1.60;;;15.50;60.90;;;;;;5007667;28;20037;-75
2022/06/13 04:42:36;;;;;;;3.00;1.38;;;15.50;60.90;;;;;;4979187;28;20057;-75
2022/06/13 04:45:07;;;;;;;5.38;1.45;;;15.50;60.90;;;;;;4989703;28;20048;-75
2022/06/13 04:47:33;;;;;;;3.50;1.35;;;15.60;61.20;;;;;;4978533;28;20032;-75
2022/06/13 04:49:59;;;;;;;4.25;1.10;;;15.60;61.10;;;;;;5007873;28;20095;-73
2022/06/13 04:52:29;;;;;;;7.75;1.42;;;15.60;61.00;;;;;;5012896;28;20039;-73
2022/06/13 04:55:10;;;;;;;5.15;1.23;;;15.70;61.20;;;;;;5018932;28;20068;-73
2022/06/13 04:57:35;;;;;;;4.55;1.00;;;15.70;60.90;;;;;;5010988;28;20088;-73
2022/06/13 05:00:07;;;;;;;5.28;1.60;;;15.80;60.80;;;;;;5028434;28;20033;-73
2022/06/13 05:02:49;;;;;;;5.20;1.00;;;15.80;60.70;;;;;;5003740;28;20510;-74
2022/06/13 05:05:36;;;;;;;4.22;1.00;;;15.90;60.70;;;;;;4987885;28;20037;-74
2022/06/13 05:08:30;;;;;;;1.38;0.98;;;15.90;60.80;;;;;;4991062;28;20134;-73
2022/06/13 05:11:29;;;;;;;2.13;1.08;;;16.00;60.50;;;;;;4976262;28;20085;-74
2022/06/13 05:14:00;;;;;;;6.57;1.20;;;16.10;60.40;;;;;;4979016;28;20526;-75
2022/06/13 05:17:03;;;;;;;6.13;1.50;;;16.10;60.00;;;;;;5009979;28;20045;-75
2022/06/13 05:19:50;;;;;;;3.35;1.15;;;16.20;60.20;;;;;;4996090;28;20542;-75
2022/06/13 05:22:37;;;;;;;7.72;1.55;;;16.20;59.80;;;;;;5008635;28;20606;-74
2022/06/13 05:25:09;;;;;;;5.22;1.20;;;16.30;60.10;;;;;;5008338;28;20034;-75
2022/06/13 05:27:34;;;;;;;1.83;1.15;;;16.30;59.80;;;;;;4997097;28;20069;-74
2022/06/13 05:30:00;;;;;;;4.75;1.30;;;16.40;59.70;;;;;;4976457;28;20073;-74
2022/06/13 05:32:26;;;;;;;8.82;1.85;;;16.40;59.60;;;;;;4989552;28;20041;-75
2022/06/13 05:34:51;;;;;;;8.52;1.05;;;16.50;59.60;;;;;;4979773;28;20037;-75
2022/06/13 05:37:17;;;;;;;10.52;1.58;;;16.60;59.60;;;;;;5014079;28;20030;-75
2022/06/13 05:39:42;;;;;;;2.45;1.23;;;16.60;59.40;;;;;;5005394;28;20034;-75
2022/06/13 05:42:10;;;;;;;3.35;1.15;;;16.70;59.40;;;;;;4999377;28;20124;-75
2022/06/13 05:44:36;;;;;;;9.20;1.42;;;16.80;59.40;;;;;;4989392;28;20125;-75
2022/06/13 05:47:01;;;;;;;5.55;1.55;;;16.80;59.30;;;;;;4996144;28;20715;-75
2022/06/13 05:49:27;;;;;;;5.00;1.30;;;16.90;59.30;;;;;;4974551;28;20026;-75
2022/06/13 05:51:53;;;;;;;5.18;1.45;;;17.00;59.20;;;;;;4964104;28;20022;-74
2022/06/13 05:54:18;;;;;;;5.70;1.40;;;17.00;59.10;;;;;;5004494;28;20034;-75
2022/06/13 05:56:44;;;;;;;6.05;1.70;;;17.10;59.10;;;;;;4966809;28;20750;-75
2022/06/13 05:59:09;;;;;;;5.53;1.38;;;17.20;59.00;;;;;;4980852;28;20042;-74
2022/06/13 06:01:36;;;;;;;6.45;1.30;;;17.30;58.90;;;;;;4979357;28;20038;-74
2022/06/13 06:04:05;;;;;;;7.05;1.45;;;17.40;58.80;;;;;;4986843;28;20050;-74
2022/06/13 06:06:31;;;;;;;11.98;2.92;;;17.40;58.80;;;;;;4981259;28;20037;-74
2022/06/13 06:09:00;;;;;;;4.18;1.27;;;17.50;58.70;;;;;;5019571;28;20037;-76
2022/06/13 06:11:27;;;;;;;6.18;1.40;;;17.70;58.60;;;;;;4999656;28;20521;-74
2022/06/13 06:13:52;;;;;;;2.60;1.20;;;17.80;58.50;;;;;;4987855;28;20096;-74
2022/06/13 06:16:19;;;;;;;8.30;1.40;;;17.80;58.20;;;;;;4995297;28;20041;-74
2022/06/13 06:18:45;;;;;;;6.68;1.45;;;17.90;58.10;;;;;;5020276;28;20128;-76
2022/06/13 06:21:11;;;;;;;6.28;1.40;;;18.00;58.10;;;;;;4999390;28;20205;-74
2022/06/13 06:23:37;;;;;;;4.97;1.80;;;18.10;58.00;;;;;;4979129;28;20091;-73
2022/06/13 06:26:03;;;;;;;4.63;1.42;;;18.30;57.80;;;;;;5001971;28;20045;-71
2022/06/13 06:28:28;;;;;;;9.93;1.60;;;18.40;57.60;;;;;;5013130;28;20154;-77
2022/06/13 06:30:55;;;;;;;7.15;1.10;;;18.50;57.50;;;;;;5034239;28;20690;-75
2022/06/13 06:33:21;;;;;;;5.53;1.75;;;18.60;57.30;;;;;;4988882;28;20053;-74
2022/06/13 06:35:48;;;;;;;6.32;1.75;;;18.70;57.20;;;;;;5016614;28;20041;-76
2022/06/13 06:38:13;;;;;;;6.05;1.58;;;18.80;57.00;;;;;;4983927;28;20038;-74
2022/06/13 06:40:39;;;;;;;8.48;1.70;;;18.90;56.80;;;;;;5029224;28;20084;-75
2022/06/13 06:43:05;;;;;;;4.63;1.25;;;19.00;56.70;;;;;;5029083;28;20101;-74
2022/06/13 06:45:30;;;;;;;4.35;1.20;;;19.20;56.60;;;;;;4987265;28;21087;-75
2022/06/13 06:47:56;;;;;;;4.88;1.23;;;19.30;57.20;;;;;;5013673;28;20132;-74
2022/06/13 06:50:24;;;;;;;4.70;1.27;;;19.50;56.30;;;;;;4992161;28;20112;-75
2022/06/13 06:52:49;;;;;;;4.47;1.70;;;19.60;56.00;;;;;;5018326;28;20042;-74
2022/06/13 07:00:46;;;;;;;7.55;1.30;;;20.00;55.20;;;;;;5013454;28;20091;-73
2022/06/13 07:03:12;;;;;;;3.65;1.02;;;20.20;55.00;;;;;;4971371;28;20033;-74
2022/06/13 07:05:37;;;;;;;2.42;1.27;;;20.30;54.80;;;;;;4996333;28;20041;-75
2022/06/13 07:08:03;;;;;;;3.50;1.30;;;20.50;54.60;;;;;;5019719;28;20599;-74
2022/06/13 07:10:29;;;;;;;4.47;1.15;;;20.70;54.40;;;;;;4984249;28;20037;-75
2022/06/13 07:12:54;;;;;;;1.42;0.82;;;20.80;54.10;;;;;;5019652;28;20063;-74
2022/06/13 07:15:20;;;;;;;2.97;1.20;;;20.80;53.80;;;;;;5017800;28;20049;-74
2022/06/13 07:17:46;;;;;;;6.30;1.23;;;21.00;53.60;;;;;;5018107;28;20513;-74
2022/06/13 07:20:12;;;;;;;13.02;1.65;;;21.10;53.10;;;;;;5007949;28;20033;-75
2022/06/13 07:22:40;;;;;;;7.68;1.13;;;21.20;52.80;;;;;;5003670;28;20168;-75
2022/06/13 07:25:08;;;;;;;7.15;1.50;;;21.50;52.50;;;;;;5028849;28;20038;-75
2022/06/13 07:27:33;;;;;;;3.53;1.23;;;21.70;52.20;;;;;;4994507;28;20034;-76
2022/06/13 07:29:59;;;;;;;2.60;1.23;;;21.80;51.90;;;;;;5009258;28;20694;-75
2022/06/13 07:32:25;;;;;;;3.65;1.17;;;21.80;51.50;;;;;;5011747;28;20066;-74
2022/06/13 07:34:52;;;;;;;2.25;1.10;;;21.90;51.20;;;;;;5001114;28;20522;-74
2022/06/13 07:40:07;;;;;;;5.22;1.30;;;22.10;50.50;;;;;;4993235;28;20064;-74
2022/06/13 07:42:38;;;;;;;4.82;1.42;;;22.20;50.30;;;;;;5007308;28;20103;-75
2022/06/13 07:45:04;;;;;;;5.88;1.10;;;22.40;50.00;;;;;;5005022;28;20034;-74
2022/06/13 07:47:30;;;;;;;1.90;0.88;;;22.50;49.70;;;;;;5020012;28;20752;-74
2022/06/13 07:49:55;;;;;;;8.18;1.30;;;22.60;49.30;;;;;;5007410;28;20056;-74
2022/06/13 07:52:21;;;;;;;5.03;1.17;;;22.80;49.10;;;;;;5001357;28;20785;-75
2022/06/13 07:54:46;;;;;;;6.15;1.23;;;23.00;48.80;;;;;;5003899;28;20048;-74
2022/06/13 07:57:12;;;;;;;5.00;1.15;;;23.10;48.40;;;;;;4999889;28;20546;-74
2022/06/13 07:59:37;;;;;;;4.95;1.77;;;23.20;48.60;;;;;;4980377;28;20058;-74
2022/06/13 08:02:03;;;;;;;3.63;0.80;;;23.40;47.60;;;;;;4978259;28;20048;-73
2022/06/13 08:04:29;;;;;;;6.00;1.10;;;23.60;47.30;;;;;;4990754;28;20137;-75
2022/06/13 08:06:54;;;;;;;2.42;1.02;;;23.80;46.70;;;;;;5002858;28;20042;-74
2022/06/13 08:09:20;;;;;;;4.43;1.13;;;23.90;46.40;;;;;;5018206;28;20064;-75
2022/06/13 08:11:50;;;;;;;4.35;1.30;;;24.10;46.10;;;;;;5007114;28;20033;-75
2022/06/13 08:14:15;;;;;;;4.78;1.60;;;24.20;45.50;;;;;;4992770;28;20029;-75
2022/06/13 08:16:42;;;;;;;4.78;1.58;;;24.30;45.40;;;;;;4992943;28;20046;-76
2022/06/13 08:19:08;;;;;;;2.63;1.23;;;24.50;45.00;;;;;;4998119;28;20044;-74
2022/06/13 08:21:35;;;;;;;3.90;1.08;;;24.60;44.70;;;;;;5009796;28;20053;-76
2022/06/13 08:24:00;;;;;;;6.72;1.02;;;24.60;44.20;;;;;;5004485;28;20029;-75
2022/06/13 08:26:27;;;;;;;2.75;1.02;;;24.80;44.10;;;;;;5001060;28;20054;-75
2022/06/13 08:28:53;;;;;;;4.38;1.15;;;24.90;43.90;;;;;;4983453;28;20045;-75
2022/06/13 08:31:20;;;;;;;5.35;1.30;;;25.10;43.50;;;;;;4974597;28;20041;-76
2022/06/13 08:33:45;;;;;;;2.17;0.85;;;25.30;43.30;;;;;;4979155;28;20033;-75
2022/06/13 08:36:11;;;;;;;3.28;0.88;;;25.40;43.10;;;;;;5011851;28;20088;-75
2022/06/13 08:38:37;;;;;;;3.50;0.80;;;25.60;42.90;;;;;;4989806;28;20538;-75
2022/06/13 08:41:12;;;;;;;10.60;1.83;;;25.70;42.50;;;;;;4981553;28;20060;-74
2022/06/13 08:44:04;;;;;;;6.65;1.30;;;25.80;41.80;;;;;;4999461;28;20052;-77
2022/06/13 08:46:51;;;;;;;6.78;1.48;;;26.00;41.30;;;;;;4997255;28;20065;-76
2022/06/13 08:49:40;;;;;;;3.72;0.73;;;26.00;40.90;;;;;;4987748;28;20518;-75
2022/06/13 08:52:17;;;;;;;1.27;0.77;;;26.00;39.90;;;;;;4983032;28;20037;-75
2022/06/13 08:54:45;;;;;;;3.42;0.77;;;26.00;40.50;;;;;;4978896;28;20113;-76
2022/06/13 08:57:11;;;;;;;4.82;1.15;;;26.00;40.40;;;;;;4998268;28;20701;-75
2022/06/13 08:59:41;;;;;;;3.25;1.08;;;26.10;40.30;;;;;;4983017;28;20116;-75
2022/06/13 09:02:33;;;;;;;3.45;0.73;;;26.10;40.00;;;;;;5014212;28;20487;-76
2022/06/13 09:05:03;;;;;;;2.47;0.85;;;26.20;38.60;;;;;;4991120;28;20033;-76
2022/06/13 09:07:35;;;;;;;3.67;0.82;;;26.20;39.20;;;;;;5005841;28;20061;-75
2022/06/13 09:10:30;;;;;;;2.55;1.05;;;26.30;38.70;;;;;;5025062;28;20043;-75
2022/06/13 09:13:04;;;;;;;2.20;0.90;;;26.40;37.70;;;;;;5001443;28;20033;-75
2022/06/13 09:15:41;;;;;;;3.08;0.63;;;26.60;38.40;;;;;;5024027;28;20049;-76
2022/06/13 09:18:14;;;;;;;1.92;0.90;;;26.80;37.70;;;;;;5029519;28;20041;-75
2022/06/13 09:21:02;;;;;;;2.13;1.00;;;27.00;38.00;;;;;;4994587;28;20592;-75
2022/06/13 09:23:48;;;;;;;4.05;0.85;;;27.20;36.80;;;;;;5007860;28;20047;-75
2022/06/13 09:26:40;;;;;;;2.25;0.90;;;27.20;37.10;;;;;;5006319;28;20041;-75
2022/06/13 09:29:28;;;;;;;3.63;0.90;;;27.30;37.10;;;;;;4992496;28;20136;-75
2022/06/13 09:32:07;;;;;;;2.03;0.88;;;27.50;36.70;;;;;;4982187;28;20398;-75
2022/06/13 09:34:39;;;;;;;3.83;0.75;;;27.70;36.60;;;;;;5016524;28;20172;-76
2022/06/13 09:37:11;;;;;;;3.53;0.88;;;27.90;36.90;;;;;;5015041;28;20553;-76
2022/06/13 09:39:37;;;;;;;3.38;1.02;;;28.00;36.50;;;;;;5000293;28;20038;-76
2022/06/13 09:42:19;;;;;;;3.28;1.00;;;28.10;36.40;;;;;;5000808;28;20038;-74
2022/06/13 09:45:23;;;;;;;4.03;1.30;;;28.20;35.50;;;;;;4970677;28;20034;-76
2022/06/13 09:47:48;;;;;;;2.15;0.85;;;28.40;34.50;;;;;;5024686;28;20059;-76
2022/06/13 09:50:27;;;;;;;2.28;0.75;;;28.50;35.30;;;;;;5005797;28;20574;-76
2022/06/13 09:53:13;;;;;;;4.32;1.20;;;28.70;34.60;;;;;;5011916;28;20030;-76
2022/06/13 09:56:08;;;;;;;2.92;0.63;;;28.80;33.90;;;;;;4999087;28;20445;-76
2022/06/13 09:59:01;;;;;;;9.40;1.38;;;28.90;34.00;;;;;;4978415;28;20036;-76
2022/06/13 10:01:33;;;;;;;3.40;1.00;;;29.00;34.30;;;;;;4983725;28;20041;-75
2022/06/13 10:04:20;;;;;;;2.38;0.80;;;29.10;34.50;;;;;;5016240;28;20103;-75
2022/06/13 10:06:55;;;;;;;1.80;0.70;;;29.20;34.40;;;;;;5009734;28;20049;-75
2022/06/13 10:09:32;;;;;;;2.47;0.80;;;29.20;33.80;;;;;;5005973;28;20042;-75
2022/06/13 10:12:25;;;;;;;3.92;0.90;;;29.40;33.50;;;;;;4996483;28;20038;-75
2022/06/13 10:15:13;;;;;;;2.15;0.90;;;29.50;32.90;;;;;;5005241;28;20042;-76
2022/06/13 10:17:54;;;;;;;5.78;1.10;;;29.60;32.80;;;;;;4964203;28;20123;-76
2022/06/13 10:20:57;;;;;;;3.67;1.20;;;29.70;32.50;;;;;;4995789;28;20040;-75
2022/06/13 10:23:43;;;;;;;2.50;1.00;;;29.80;32.20;;;;;;4984236;28;20317;-75
2022/06/13 10:26:17;;;;;;;4.07;1.05;;;29.90;32.60;;;;;;5019556;28;20099;-75
2022/06/13 10:28:46;;;;;;;1.88;0.80;;;30.10;32.90;;;;;;5011094;28;20028;-75
2022/06/13 10:31:11;;;;;;;3.88;1.20;;;30.30;32.70;;;;;;5022900;28;20064;-76
2022/06/13 10:33:57;;;;;;;1.90;0.90;;;30.40;32.40;;;;;;5002476;28;20053;-75
2022/06/13 10:36:31;;;;;;;2.53;0.90;;;30.30;31.80;;;;;;5024107;28;20356;-76
2022/06/13 10:39:08;;;;;;;4.55;1.10;;;30.20;32.00;;;;;;5015871;28;20030;-76
2022/06/13 10:41:36;;;;;;;3.60;0.80;;;30.00;31.60;;;;;;4995686;28;20069;-75
2022/06/13 10:44:02;;;;;;;3.83;1.00;;;30.00;32.20;;;;;;4987688;28;20443;-76
2022/06/13 10:46:28;;;;;;;5.13;1.38;;;30.00;32.20;;;;;;5008322;28;20095;-76
2022/06/13 10:49:00;;;;;;;4.05;1.17;;;30.00;32.00;;;;;;5019762;28;20041;-75
2022/06/13 10:51:26;;;;;;;2.55;0.90;;;30.20;31.90;;;;;;4993279;28;20038;-75
2022/06/13 10:54:11;;;;;;;2.63;0.98;;;30.30;31.90;;;;;;5023706;28;20045;-76
2022/06/13 10:56:42;;;;;;;4.00;1.20;;;30.40;31.70;;;;;;4994680;28;20037;-75
2022/06/13 10:59:24;;;;;;;3.90;1.40;;;30.60;31.60;;;;;;5018387;28;20045;-75
2022/06/13 11:02:01;;;;;;;3.88;1.25;;;30.80;31.40;;;;;;4967769;28;20169;-75
2022/06/13 11:04:28;;;;;;;3.05;1.20;;;30.90;31.20;;;;;;5008384;28;20038;-75
2022/06/13 11:06:59;;;;;;;1.80;1.00;;;31.10;31.10;;;;;;5017376;28;20045;-76
2022/06/13 11:09:43;;;;;;;2.72;1.00;;;31.20;31.00;;;;;;5016786;28;20041;-75
2022/06/13 11:12:19;;;;;;;2.67;1.00;;;31.30;30.80;;;;;;5014376;28;20041;-75
2022/06/13 11:23:37;;;;;;;2.33;1.10;;;31.70;30.50;;;;;;5009757;28;20043;-76
2022/06/13 11:27:39;;;;;;;1.52;1.20;;;31.90;30.20;;;;;;4994299;28;20041;-75
2022/06/13 11:28:48;;;;;;;6.97;1.30;;;32.00;30.20;;;;;;5019779;28;20034;-76
2022/06/13 11:31:21;;;;;;;2.70;1.30;;;32.10;30.00;;;;;;5028677;28;20079;-75
2022/06/13 11:33:47;;;;;;;3.70;1.30;;;32.20;29.70;;;;;;5018900;28;20030;-75
2022/06/13 11:36:15;;;;;;;3.97;1.30;;;32.30;29.90;;;;;;4999104;28;20080;-76
2022/06/13 11:39:01;;;;;;;3.17;0.93;;;32.30;29.70;;;;;;5011230;28;20040;-74
2022/06/13 11:41:50;;;;;;;3.60;1.10;;;32.30;29.20;;;;;;4987594;28;20060;-75
2022/06/13 11:44:20;;;;;;;3.38;1.10;;;32.40;29.50;;;;;;5016310;28;20672;-76
2022/06/13 11:46:59;;;;;;;2.53;1.00;;;32.50;29.50;;;;;;4982020;28;20042;-77
2022/06/13 11:49:32;;;;;;;4.60;1.30;;;32.50;28.90;;;;;;4984179;28;20038;-76
2022/06/13 11:52:09;;;;;;;3.63;1.17;;;32.60;29.10;;;;;;5000775;28;20120;-76
2022/06/13 11:54:40;;;;;;;4.05;1.00;;;32.70;29.00;;;;;;5022582;28;20037;-75
2022/06/13 11:57:15;;;;;;;2.30;1.02;;;32.80;28.80;;;;;;4998940;28;20042;-76
2022/06/13 11:59:50;;;;;;;3.42;1.20;;;32.90;28.60;;;;;;5006578;28;20075;-75
2022/06/13 12:02:22;;;;;;;4.88;1.00;;;32.90;28.60;;;;;;5016060;28;20045;-76
2022/06/13 12:04:48;;;;;;;6.40;1.48;;;33.00;28.70;;;;;;5016971;28;20041;-76
2022/06/13 12:07:28;;;;;;;4.90;1.25;;;33.20;28.90;;;;;;5028436;28;20033;-76
2022/06/13 12:09:55;;;;;;;;;;;33.20;28.30;;;;;;5015788;28;20038;-76
2022/06/13 12:12:21;;;;;;;4.97;1.10;;;33.20;28.70;;;;;;5018706;28;20345;-75
2022/06/13 12:14:47;;;;;;;2.20;1.00;;;33.10;28.80;;;;;;4989469;28;20042;-76
2022/06/13 12:17:18;;;;;;;6.97;1.40;;;33.10;28.80;;;;;;5028812;28;20049;-76
2022/06/13 12:19:59;;;;;;;3.78;1.23;;;33.00;28.70;;;;;;4974476;28;20054;-76
2022/06/13 12:22:28;;;;;;;7.40;1.25;;;33.00;29.20;;;;;;5005898;28;20037;-75
2022/06/13 12:25:18;;;;;;;3.38;1.25;;;33.00;28.80;;;;;;5015958;28;20056;-75
2022/06/13 12:27:50;;;;;;;4.57;1.33;;;33.00;28.30;;;;;;5007022;28;20033;-76
2022/06/13 12:30:51;;;;;;;4.38;1.40;;;33.00;29.40;;;;;;5012167;28;20101;-76
2022/06/13 12:33:54;;;;;;;4.53;1.38;;;33.00;28.60;;;;;;5028531;28;20038;-75
2022/06/13 12:36:33;;;;;;;5.15;1.50;;;33.00;28.50;;;;;;5012024;28;20060;-75
2022/06/13 12:39:22;;;;;;;2.95;1.15;;;33.10;28.90;;;;;;4988124;28;20522;-74
2022/06/13 12:41:56;;;;;;;5.10;1.48;;;33.00;28.90;;;;;;5004934;28;20092;-74
2022/06/13 12:44:31;;;;;;;4.05;1.58;;;32.90;29.10;;;;;;4987027;28;20029;-75
2022/06/13 12:47:16;;;;;;;5.60;1.73;;;32.90;29.20;;;;;;5000427;28;20045;-75
2022/06/13 12:50:07;;;;;;;3.67;1.13;;;33.00;29.20;;;;;;5000774;28;20061;-74
2022/06/13 12:52:36;;;;;;;6.03;1.50;;;33.10;29.30;;;;;;4976361;28;20641;-74
2022/06/13 12:55:21;;;;;;;2.63;1.25;;;33.20;29.40;;;;;;4998396;28;20215;-74
2022/06/13 12:57:54;;;;;;;3.72;1.30;;;33.30;29.30;;;;;;5003633;28;20529;-75
2022/06/13 13:00:28;;;;;;;4.30;1.50;;;33.30;29.30;;;;;;5030821;28;20041;-74
2022/06/13 13:02:59;;;;;;;2.78;1.67;;;33.40;29.30;;;;;;5014516;28;20034;-74
2022/06/13 13:05:49;;;;;;;3.67;1.40;;;33.40;29.10;;;;;;5015998;28;20037;-74
2022/06/13 13:08:17;;;;;;;4.88;1.63;;;33.40;28.80;;;;;;5013058;28;20037;-74
2022/06/13 13:11:18;;;;;;;3.95;1.10;;;33.40;29.10;;;;;;5018030;28;20041;-74
2022/06/13 13:14:02;;;;;;;4.10;1.30;;;33.50;28.80;;;;;;4943191;28;20029;-74
2022/06/13 13:16:46;;;;;;;4.53;1.58;;;33.70;29.10;;;;;;5012689;28;20054;-75
2022/06/13 13:19:17;;;;;;;2.72;1.42;;;33.60;28.70;;;;;;5016166;28;20490;-74
2022/06/13 13:22:03;;;;;;;2.20;1.05;;;33.70;28.80;;;;;;4985415;28;20033;-75
2022/06/13 13:24:44;;;;;;;5.93;2.15;;;33.60;28.80;;;;;;5003784;28;20029;-75
2022/06/13 13:27:15;;;;;;;2.72;1.20;;;33.50;28.60;;;;;;4996625;28;20048;-74
2022/06/13 13:29:59;;;;;;;2.53;1.20;;;33.40;28.80;;;;;;4996902;28;20045;-76
2022/06/13 13:32:42;;;;;;;3.90;1.58;;;33.40;28.70;;;;;;5017425;28;20068;-76
2022/06/13 13:35:33;;;;;;;2.28;1.23;;;33.30;28.70;;;;;;5013942;28;20036;-75
2022/06/13 13:38:18;;;;;;;3.42;1.67;;;33.10;28.50;;;;;;5023378;28;20025;-75
2022/06/13 13:40:48;;;;;;;3.20;1.55;;;32.90;28.70;;;;;;4981852;28;20551;-77
2022/06/13 13:43:28;;;;;;;2.58;1.55;;;32.70;28.80;;;;;;4991803;28;20635;-75
2022/06/13 13:46:03;;;;;;;4.78;1.60;;;32.60;28.70;;;;;;5021257;28;20033;-74